Current | Forecast
Updated: 4:00 PM CET on December 13, 2017
Observed at Vigo, Spain
Temperature 11°C
Humidity 94%
Dew Point 10°C
Wind South at 13 km/h
Pressure 1024 hPa (Steady)
Conditions Light Rain
Visibility 0.1 kilometers
UV N/A
Clouds
Yesterday's Maximum 9°C
Yesterday's Minimum 3°C approx.
Yesterday's Heating Degree Days 22 approx.
Sunrise8:55 AM CET
Sunset6:01 PM CET
Moon Rise4:02 AM CET
Moon Set3:38 PM CET
Moon PhaseMoon Phase
Waning Crescent
Raw METARMETAR LEVX 131500Z 18007KT 140V220 0100 R19/0650D R01/0250N -RA FG VV001 11/10 Q1024 NOSIG


Monday
. High: 62° F.
Tuesday
. High: 60° F.
Wednesday
. High: 59° F.
Thursday
. High: 64° F.
Friday
. High: 66° F.
Saturday
. High: 60° F.
Sunday
. High: 68° F.
Monday
. High: 77° F.

Click here for Marine Information
Scientific forecaster discussion (NWS)

Units: English | Metric

Find the Weather for any City, State or Zipcode, or Country:

U.S. State List | Severe Weather | Tropical Storms | Ski Conditions
United States | Canada | Central America | South America | Asia | Europe | Australia | Africa | Islands

Weather Underground

© Copyright 2017
The Weather Company, LLC